sensor_id;sensor_type;location;lat;lon;timestamp;P1;durP1;ratioP1;P2;durP2;ratioP2
18082;SDS011;9168;51.194;6.840;2024-03-25T00:00:13;17.95;;;2.47;;
18082;SDS011;9168;51.194;6.840;2024-03-25T00:02:41;23.90;;;2.22;;
18082;SDS011;9168;51.194;6.840;2024-03-25T00:05:08;14.32;;;3.00;;
18082;SDS011;9168;51.194;6.840;2024-03-25T00:07:36;12.80;;;2.58;;
18082;SDS011;9168;51.194;6.840;2024-03-25T00:10:02;14.98;;;1.83;;
18082;SDS011;9168;51.194;6.840;2024-03-25T00:12:31;22.92;;;2.75;;
18082;SDS011;9168;51.194;6.840;2024-03-25T00:14:57;15.85;;;2.50;;
18082;SDS011;9168;51.194;6.840;2024-03-25T00:17:24;15.60;;;2.03;;
18082;SDS011;9168;51.194;6.840;2024-03-25T00:19:49;8.52;;;2.08;;
18082;SDS011;9168;51.194;6.840;2024-03-25T00:22:17;12.10;;;2.17;;
18082;SDS011;9168;51.194;6.840;2024-03-25T00:24:44;17.02;;;2.92;;
18082;SDS011;9168;51.194;6.840;2024-03-25T00:27:11;21.85;;;3.05;;
18082;SDS011;9168;51.194;6.840;2024-03-25T00:29:38;17.70;;;2.70;;
18082;SDS011;9168;51.194;6.840;2024-03-25T00:32:05;14.38;;;2.72;;
18082;SDS011;9168;51.194;6.840;2024-03-25T00:34:31;11.73;;;2.95;;
18082;SDS011;9168;51.194;6.840;2024-03-25T00:36:58;16.38;;;2.92;;
18082;SDS011;9168;51.194;6.840;2024-03-25T00:39:25;17.45;;;2.22;;
18082;SDS011;9168;51.194;6.840;2024-03-25T00:41:52;8.38;;;2.40;;
18082;SDS011;9168;51.194;6.840;2024-03-25T00:44:19;10.88;;;2.72;;
18082;SDS011;9168;51.194;6.840;2024-03-25T00:46:46;22.40;;;3.15;;
18082;SDS011;9168;51.194;6.840;2024-03-25T00:49:12;12.25;;;3.05;;
18082;SDS011;9168;51.194;6.840;2024-03-25T00:51:39;18.17;;;3.00;;
18082;SDS011;9168;51.194;6.840;2024-03-25T00:54:04;20.08;;;3.22;;
18082;SDS011;9168;51.194;6.840;2024-03-25T00:56:31;13.98;;;2.75;;
18082;SDS011;9168;51.194;6.840;2024-03-25T00:58:57;15.93;;;3.03;;
18082;SDS011;9168;51.194;6.840;2024-03-25T01:01:28;14.32;;;3.00;;
18082;SDS011;9168;51.194;6.840;2024-03-25T01:03:54;17.15;;;3.13;;
18082;SDS011;9168;51.194;6.840;2024-03-25T01:06:21;11.15;;;3.05;;
18082;SDS011;9168;51.194;6.840;2024-03-25T01:08:46;16.95;;;3.45;;
18082;SDS011;9168;51.194;6.840;2024-03-25T01:11:13;12.75;;;2.70;;
18082;SDS011;9168;51.194;6.840;2024-03-25T01:13:39;21.30;;;3.30;;
18082;SDS011;9168;51.194;6.840;2024-03-25T01:16:06;20.25;;;3.67;;
18082;SDS011;9168;51.194;6.840;2024-03-25T01:18:32;18.30;;;3.40;;
18082;SDS011;9168;51.194;6.840;2024-03-25T01:20:59;24.17;;;3.42;;
18082;SDS011;9168;51.194;6.840;2024-03-25T01:23:25;13.95;;;3.17;;
18082;SDS011;9168;51.194;6.840;2024-03-25T01:25:52;16.08;;;3.05;;
18082;SDS011;9168;51.194;6.840;2024-03-25T01:28:18;13.23;;;3.00;;
18082;SDS011;9168;51.194;6.840;2024-03-25T01:30:44;15.88;;;3.28;;
18082;SDS011;9168;51.194;6.840;2024-03-25T01:33:10;16.08;;;3.22;;
18082;SDS011;9168;51.194;6.840;2024-03-25T01:35:37;16.27;;;3.20;;
18082;SDS011;9168;51.194;6.840;2024-03-25T01:38:03;18.30;;;3.38;;
18082;SDS011;9168;51.194;6.840;2024-03-25T01:40:29;18.65;;;3.72;;
18082;SDS011;9168;51.194;6.840;2024-03-25T01:42:56;17.02;;;3.00;;
18082;SDS011;9168;51.194;6.840;2024-03-25T01:45:27;20.13;;;3.05;;
18082;SDS011;9168;51.194;6.840;2024-03-25T01:47:59;18.05;;;3.25;;
18082;SDS011;9168;51.194;6.840;2024-03-25T01:50:33;11.70;;;3.35;;
18082;SDS011;9168;51.194;6.840;2024-03-25T01:53:01;9.60;;;2.80;;
18082;SDS011;9168;51.194;6.840;2024-03-25T01:55:29;14.07;;;3.15;;
18082;SDS011;9168;51.194;6.840;2024-03-25T01:57:57;15.25;;;2.85;;
18082;SDS011;9168;51.194;6.840;2024-03-25T02:00:24;14.77;;;2.80;;
18082;SDS011;9168;51.194;6.840;2024-03-25T02:02:51;12.20;;;2.85;;
18082;SDS011;9168;51.194;6.840;2024-03-25T02:05:18;27.40;;;3.53;;
18082;SDS011;9168;51.194;6.840;2024-03-25T02:07:45;18.35;;;3.80;;
18082;SDS011;9168;51.194;6.840;2024-03-25T02:10:12;19.65;;;2.92;;
18082;SDS011;9168;51.194;6.840;2024-03-25T02:12:40;14.40;;;3.28;;
18082;SDS011;9168;51.194;6.840;2024-03-25T02:15:11;16.75;;;2.83;;
18082;SDS011;9168;51.194;6.840;2024-03-25T02:17:38;9.10;;;2.28;;
18082;SDS011;9168;51.194;6.840;2024-03-25T02:20:05;16.35;;;3.33;;
18082;SDS011;9168;51.194;6.840;2024-03-25T02:22:33;16.17;;;3.45;;
18082;SDS011;9168;51.194;6.840;2024-03-25T02:25:01;17.05;;;3.58;;
18082;SDS011;9168;51.194;6.840;2024-03-25T02:27:31;14.77;;;3.35;;
18082;SDS011;9168;51.194;6.840;2024-03-25T02:30:01;12.82;;;3.17;;
18082;SDS011;9168;51.194;6.840;2024-03-25T02:32:35;14.00;;;2.85;;
18082;SDS011;9168;51.194;6.840;2024-03-25T02:35:03;22.08;;;3.28;;
18082;SDS011;9168;51.194;6.840;2024-03-25T02:37:31;13.80;;;2.65;;
18082;SDS011;9168;51.194;6.840;2024-03-25T02:39:59;13.50;;;2.72;;
18082;SDS011;9168;51.194;6.840;2024-03-25T02:42:26;14.00;;;2.90;;
18082;SDS011;9168;51.194;6.840;2024-03-25T02:44:54;11.45;;;2.20;;
18082;SDS011;9168;51.194;6.840;2024-03-25T02:47:21;14.23;;;3.28;;
18082;SDS011;9168;51.194;6.840;2024-03-25T02:49:48;19.77;;;2.80;;
18082;SDS011;9168;51.194;6.840;2024-03-25T02:52:13;26.27;;;3.78;;
18082;SDS011;9168;51.194;6.840;2024-03-25T02:54:41;13.30;;;2.85;;
18082;SDS011;9168;51.194;6.840;2024-03-25T02:57:06;14.38;;;3.70;;
18082;SDS011;9168;51.194;6.840;2024-03-25T02:59:33;20.67;;;2.80;;
18082;SDS011;9168;51.194;6.840;2024-03-25T03:01:59;18.38;;;3.47;;
18082;SDS011;9168;51.194;6.840;2024-03-25T03:04:25;19.40;;;2.75;;
18082;SDS011;9168;51.194;6.840;2024-03-25T03:06:51;16.90;;;2.20;;
18082;SDS011;9168;51.194;6.840;2024-03-25T03:09:18;15.05;;;3.38;;
18082;SDS011;9168;51.194;6.840;2024-03-25T03:11:43;8.85;;;2.17;;
18082;SDS011;9168;51.194;6.840;2024-03-25T03:14:10;19.48;;;2.92;;
18082;SDS011;9168;51.194;6.840;2024-03-25T03:16:36;10.73;;;2.40;;
18082;SDS011;9168;51.194;6.840;2024-03-25T03:19:02;18.90;;;3.53;;
18082;SDS011;9168;51.194;6.840;2024-03-25T03:21:28;13.68;;;3.10;;
18082;SDS011;9168;51.194;6.840;2024-03-25T03:23:56;15.90;;;3.08;;
18082;SDS011;9168;51.194;6.840;2024-03-25T03:26:21;16.00;;;2.95;;
18082;SDS011;9168;51.194;6.840;2024-03-25T03:28:51;20.55;;;3.42;;
18082;SDS011;9168;51.194;6.840;2024-03-25T03:31:20;14.68;;;3.35;;
18082;SDS011;9168;51.194;6.840;2024-03-25T03:33:50;15.15;;;2.97;;
18082;SDS011;9168;51.194;6.840;2024-03-25T03:36:17;17.33;;;3.38;;
18082;SDS011;9168;51.194;6.840;2024-03-25T03:38:44;15.02;;;3.55;;
18082;SDS011;9168;51.194;6.840;2024-03-25T03:41:10;11.48;;;2.83;;
18082;SDS011;9168;51.194;6.840;2024-03-25T03:43:37;21.60;;;3.33;;
18082;SDS011;9168;51.194;6.840;2024-03-25T03:46:03;18.17;;;3.13;;
18082;SDS011;9168;51.194;6.840;2024-03-25T03:48:31;17.92;;;2.50;;
18082;SDS011;9168;51.194;6.840;2024-03-25T03:50:56;17.70;;;2.58;;
18082;SDS011;9168;51.194;6.840;2024-03-25T03:53:23;10.10;;;3.05;;
18082;SDS011;9168;51.194;6.840;2024-03-25T03:55:58;11.70;;;2.70;;
18082;SDS011;9168;51.194;6.840;2024-03-25T03:58:27;10.75;;;2.50;;
18082;SDS011;9168;51.194;6.840;2024-03-25T04:00:54;14.52;;;2.47;;
18082;SDS011;9168;51.194;6.840;2024-03-25T04:03:21;19.45;;;3.08;;
18082;SDS011;9168;51.194;6.840;2024-03-25T04:05:47;12.38;;;3.50;;
18082;SDS011;9168;51.194;6.840;2024-03-25T04:08:14;17.27;;;2.95;;
18082;SDS011;9168;51.194;6.840;2024-03-25T04:10:40;10.75;;;2.65;;
18082;SDS011;9168;51.194;6.840;2024-03-25T04:13:07;15.25;;;3.15;;
18082;SDS011;9168;51.194;6.840;2024-03-25T04:15:33;15.90;;;2.70;;
18082;SDS011;9168;51.194;6.840;2024-03-25T04:18:03;11.25;;;2.80;;
18082;SDS011;9168;51.194;6.840;2024-03-25T04:20:30;18.70;;;3.25;;
18082;SDS011;9168;51.194;6.840;2024-03-25T04:23:03;15.75;;;2.63;;
18082;SDS011;9168;51.194;6.840;2024-03-25T04:25:30;7.38;;;2.35;;
18082;SDS011;9168;51.194;6.840;2024-03-25T04:27:58;19.88;;;2.75;;
18082;SDS011;9168;51.194;6.840;2024-03-25T04:30:24;15.63;;;2.97;;
18082;SDS011;9168;51.194;6.840;2024-03-25T04:32:51;20.05;;;3.42;;
18082;SDS011;9168;51.194;6.840;2024-03-25T04:35:17;17.92;;;3.63;;
18082;SDS011;9168;51.194;6.840;2024-03-25T04:37:44;14.00;;;2.97;;
18082;SDS011;9168;51.194;6.840;2024-03-25T04:40:10;16.05;;;2.88;;
18082;SDS011;9168;51.194;6.840;2024-03-25T04:42:37;11.45;;;2.60;;
18082;SDS011;9168;51.194;6.840;2024-03-25T04:45:03;18.58;;;3.45;;
18082;SDS011;9168;51.194;6.840;2024-03-25T04:47:29;18.95;;;3.33;;
18082;SDS011;9168;51.194;6.840;2024-03-25T04:49:54;25.05;;;3.13;;
18082;SDS011;9168;51.194;6.840;2024-03-25T04:52:20;10.48;;;2.42;;
18082;SDS011;9168;51.194;6.840;2024-03-25T04:54:47;15.67;;;3.40;;
18082;SDS011;9168;51.194;6.840;2024-03-25T04:57:13;19.85;;;3.58;;
18082;SDS011;9168;51.194;6.840;2024-03-25T04:59:39;11.77;;;2.90;;
18082;SDS011;9168;51.194;6.840;2024-03-25T05:02:05;25.98;;;3.40;;
18082;SDS011;9168;51.194;6.840;2024-03-25T05:04:31;11.63;;;2.40;;
18082;SDS011;9168;51.194;6.840;2024-03-25T05:06:57;17.52;;;3.03;;
18082;SDS011;9168;51.194;6.840;2024-03-25T05:09:23;19.63;;;3.88;;
18082;SDS011;9168;51.194;6.840;2024-03-25T05:11:48;16.20;;;3.42;;
18082;SDS011;9168;51.194;6.840;2024-03-25T05:14:14;21.85;;;3.20;;
18082;SDS011;9168;51.194;6.840;2024-03-25T05:16:40;15.85;;;2.70;;
18082;SDS011;9168;51.194;6.840;2024-03-25T05:19:06;16.30;;;3.33;;
18082;SDS011;9168;51.194;6.840;2024-03-25T05:21:31;15.93;;;3.15;;
18082;SDS011;9168;51.194;6.840;2024-03-25T05:23:57;16.27;;;3.78;;
18082;SDS011;9168;51.194;6.840;2024-03-25T05:26:23;12.90;;;2.72;;
18082;SDS011;9168;51.194;6.840;2024-03-25T05:28:55;17.08;;;4.03;;
18082;SDS011;9168;51.194;6.840;2024-03-25T05:31:21;17.17;;;4.13;;
18082;SDS011;9168;51.194;6.840;2024-03-25T05:33:47;20.50;;;3.67;;
18082;SDS011;9168;51.194;6.840;2024-03-25T05:36:13;12.75;;;3.80;;
18082;SDS011;9168;51.194;6.840;2024-03-25T05:38:39;19.02;;;4.35;;
18082;SDS011;9168;51.194;6.840;2024-03-25T05:41:06;21.63;;;5.00;;
18082;SDS011;9168;51.194;6.840;2024-03-25T05:43:32;15.80;;;3.28;;
18082;SDS011;9168;51.194;6.840;2024-03-25T05:45:57;15.02;;;3.95;;
18082;SDS011;9168;51.194;6.840;2024-03-25T05:48:26;14.38;;;4.22;;
18082;SDS011;9168;51.194;6.840;2024-03-25T05:51:05;18.38;;;4.30;;
18082;SDS011;9168;51.194;6.840;2024-03-25T05:53:32;22.67;;;4.22;;
18082;SDS011;9168;51.194;6.840;2024-03-25T05:55:58;13.05;;;3.97;;
18082;SDS011;9168;51.194;6.840;2024-03-25T05:58:24;17.65;;;3.50;;
18082;SDS011;9168;51.194;6.840;2024-03-25T06:00:51;13.63;;;3.70;;
18082;SDS011;9168;51.194;6.840;2024-03-25T06:03:18;16.05;;;3.75;;
18082;SDS011;9168;51.194;6.840;2024-03-25T06:05:44;18.92;;;3.30;;
18082;SDS011;9168;51.194;6.840;2024-03-25T06:08:10;18.77;;;3.80;;
18082;SDS011;9168;51.194;6.840;2024-03-25T06:10:39;18.85;;;4.38;;
18082;SDS011;9168;51.194;6.840;2024-03-25T06:13:04;24.17;;;4.47;;
18082;SDS011;9168;51.194;6.840;2024-03-25T06:15:30;13.50;;;4.20;;
18082;SDS011;9168;51.194;6.840;2024-03-25T06:17:56;13.90;;;3.88;;
18082;SDS011;9168;51.194;6.840;2024-03-25T06:20:22;21.63;;;4.93;;
18082;SDS011;9168;51.194;6.840;2024-03-25T06:22:48;21.08;;;4.90;;
18082;SDS011;9168;51.194;6.840;2024-03-25T06:25:14;15.75;;;3.85;;
18082;SDS011;9168;51.194;6.840;2024-03-25T06:27:40;17.57;;;4.13;;
18082;SDS011;9168;51.194;6.840;2024-03-25T06:30:06;24.35;;;4.25;;
18082;SDS011;9168;51.194;6.840;2024-03-25T06:32:50;19.35;;;4.78;;
18082;SDS011;9168;51.194;6.840;2024-03-25T06:35:31;13.85;;;4.15;;
18082;SDS011;9168;51.194;6.840;2024-03-25T06:37:56;22.17;;;4.93;;
18082;SDS011;9168;51.194;6.840;2024-03-25T06:40:22;22.75;;;4.00;;
18082;SDS011;9168;51.194;6.840;2024-03-25T06:42:48;11.13;;;4.55;;
18082;SDS011;9168;51.194;6.840;2024-03-25T06:45:14;23.02;;;4.97;;
18082;SDS011;9168;51.194;6.840;2024-03-25T06:47:39;14.52;;;4.47;;
18082;SDS011;9168;51.194;6.840;2024-03-25T06:50:05;19.10;;;5.03;;
18082;SDS011;9168;51.194;6.840;2024-03-25T06:52:31;19.13;;;4.22;;
18082;SDS011;9168;51.194;6.840;2024-03-25T06:54:57;14.63;;;4.65;;
18082;SDS011;9168;51.194;6.840;2024-03-25T06:57:23;11.90;;;3.95;;
18082;SDS011;9168;51.194;6.840;2024-03-25T06:59:49;14.30;;;4.00;;
18082;SDS011;9168;51.194;6.840;2024-03-25T07:02:14;21.33;;;4.57;;
18082;SDS011;9168;51.194;6.840;2024-03-25T07:04:40;18.25;;;4.85;;
18082;SDS011;9168;51.194;6.840;2024-03-25T07:07:06;21.08;;;4.57;;
18082;SDS011;9168;51.194;6.840;2024-03-25T07:09:32;17.73;;;4.07;;
18082;SDS011;9168;51.194;6.840;2024-03-25T07:11:58;21.58;;;4.28;;
18082;SDS011;9168;51.194;6.840;2024-03-25T07:14:24;17.30;;;4.15;;
18082;SDS011;9168;51.194;6.840;2024-03-25T07:16:50;15.88;;;4.22;;
18082;SDS011;9168;51.194;6.840;2024-03-25T07:19:16;13.27;;;3.58;;
18082;SDS011;9168;51.194;6.840;2024-03-25T07:21:42;14.40;;;4.13;;
18082;SDS011;9168;51.194;6.840;2024-03-25T07:24:07;15.60;;;4.40;;
18082;SDS011;9168;51.194;6.840;2024-03-25T07:26:33;22.50;;;3.80;;
18082;SDS011;9168;51.194;6.840;2024-03-25T07:28:59;20.25;;;4.40;;
18082;SDS011;9168;51.194;6.840;2024-03-25T07:31:24;16.52;;;4.40;;
18082;SDS011;9168;51.194;6.840;2024-03-25T07:33:50;15.32;;;4.47;;
18082;SDS011;9168;51.194;6.840;2024-03-25T07:36:16;12.43;;;3.83;;
18082;SDS011;9168;51.194;6.840;2024-03-25T07:38:42;14.30;;;3.80;;
18082;SDS011;9168;51.194;6.840;2024-03-25T07:41:08;13.73;;;3.47;;
18082;SDS011;9168;51.194;6.840;2024-03-25T07:43:34;15.27;;;4.03;;
18082;SDS011;9168;51.194;6.840;2024-03-25T07:45:59;25.90;;;3.75;;
18082;SDS011;9168;51.194;6.840;2024-03-25T07:48:25;12.82;;;3.30;;
18082;SDS011;9168;51.194;6.840;2024-03-25T07:50:51;20.85;;;4.00;;
18082;SDS011;9168;51.194;6.840;2024-03-25T07:53:17;14.15;;;3.50;;
18082;SDS011;9168;51.194;6.840;2024-03-25T07:55:42;18.33;;;4.05;;
18082;SDS011;9168;51.194;6.840;2024-03-25T07:58:08;20.95;;;3.85;;
18082;SDS011;9168;51.194;6.840;2024-03-25T08:00:34;18.02;;;3.35;;
18082;SDS011;9168;51.194;6.840;2024-03-25T08:03:00;18.67;;;3.78;;
18082;SDS011;9168;51.194;6.840;2024-03-25T08:05:26;12.02;;;3.08;;
18082;SDS011;9168;51.194;6.840;2024-03-25T08:07:52;14.85;;;3.30;;
18082;SDS011;9168;51.194;6.840;2024-03-25T08:10:17;14.70;;;3.58;;
18082;SDS011;9168;51.194;6.840;2024-03-25T08:12:43;14.57;;;4.20;;
18082;SDS011;9168;51.194;6.840;2024-03-25T08:15:09;17.77;;;3.38;;
18082;SDS011;9168;51.194;6.840;2024-03-25T08:17:35;14.75;;;4.10;;
18082;SDS011;9168;51.194;6.840;2024-03-25T08:20:00;15.85;;;4.00;;
18082;SDS011;9168;51.194;6.840;2024-03-25T08:22:26;15.90;;;4.07;;
18082;SDS011;9168;51.194;6.840;2024-03-25T08:24:52;20.58;;;4.00;;
18082;SDS011;9168;51.194;6.840;2024-03-25T08:27:18;17.08;;;3.85;;
18082;SDS011;9168;51.194;6.840;2024-03-25T08:29:43;17.77;;;3.20;;
18082;SDS011;9168;51.194;6.840;2024-03-25T08:32:09;14.55;;;3.40;;
18082;SDS011;9168;51.194;6.840;2024-03-25T08:34:35;14.40;;;4.03;;
18082;SDS011;9168;51.194;6.840;2024-03-25T08:37:02;13.15;;;3.50;;
18082;SDS011;9168;51.194;6.840;2024-03-25T08:39:27;16.00;;;4.07;;
18082;SDS011;9168;51.194;6.840;2024-03-25T08:41:53;18.67;;;4.07;;
18082;SDS011;9168;51.194;6.840;2024-03-25T08:44:19;20.30;;;3.83;;
18082;SDS011;9168;51.194;6.840;2024-03-25T08:46:45;27.10;;;4.70;;
18082;SDS011;9168;51.194;6.840;2024-03-25T08:49:10;10.75;;;2.97;;
18082;SDS011;9168;51.194;6.840;2024-03-25T08:51:36;9.05;;;3.45;;
18082;SDS011;9168;51.194;6.840;2024-03-25T08:54:02;22.73;;;3.67;;
18082;SDS011;9168;51.194;6.840;2024-03-25T08:56:28;19.25;;;3.30;;
18082;SDS011;9168;51.194;6.840;2024-03-25T08:58:53;15.43;;;4.05;;
18082;SDS011;9168;51.194;6.840;2024-03-25T09:01:19;13.98;;;3.10;;
18082;SDS011;9168;51.194;6.840;2024-03-25T09:03:45;13.80;;;2.55;;
18082;SDS011;9168;51.194;6.840;2024-03-25T09:06:11;7.28;;;2.42;;
18082;SDS011;9168;51.194;6.840;2024-03-25T09:08:37;15.27;;;2.88;;
18082;SDS011;9168;51.194;6.840;2024-03-25T09:11:17;13.90;;;2.40;;
18082;SDS011;9168;51.194;6.840;2024-03-25T09:13:43;12.30;;;2.45;;
18082;SDS011;9168;51.194;6.840;2024-03-25T09:16:09;12.27;;;2.60;;
18082;SDS011;9168;51.194;6.840;2024-03-25T09:18:35;21.10;;;2.75;;
18082;SDS011;9168;51.194;6.840;2024-03-25T09:21:00;10.88;;;2.40;;
18082;SDS011;9168;51.194;6.840;2024-03-25T09:23:26;13.38;;;2.20;;
18082;SDS011;9168;51.194;6.840;2024-03-25T09:25:52;19.25;;;2.35;;
18082;SDS011;9168;51.194;6.840;2024-03-25T09:28:19;8.02;;;1.63;;
18082;SDS011;9168;51.194;6.840;2024-03-25T09:30:44;7.85;;;1.75;;
18082;SDS011;9168;51.194;6.840;2024-03-25T09:33:10;17.23;;;2.40;;
18082;SDS011;9168;51.194;6.840;2024-03-25T09:35:36;15.43;;;2.40;;
18082;SDS011;9168;51.194;6.840;2024-03-25T09:38:02;11.63;;;2.05;;
18082;SDS011;9168;51.194;6.840;2024-03-25T09:40:28;8.98;;;2.25;;
18082;SDS011;9168;51.194;6.840;2024-03-25T09:42:57;14.95;;;2.60;;
18082;SDS011;9168;51.194;6.840;2024-03-25T09:45:27;11.38;;;1.90;;
18082;SDS011;9168;51.194;6.840;2024-03-25T09:47:55;14.35;;;2.50;;
18082;SDS011;9168;51.194;6.840;2024-03-25T09:50:21;11.50;;;2.45;;
18082;SDS011;9168;51.194;6.840;2024-03-25T09:52:48;14.57;;;2.88;;
18082;SDS011;9168;51.194;6.840;2024-03-25T09:55:15;13.27;;;2.30;;
18082;SDS011;9168;51.194;6.840;2024-03-25T09:57:44;11.65;;;2.05;;
18082;SDS011;9168;51.194;6.840;2024-03-25T10:00:11;13.98;;;2.15;;
18082;SDS011;9168;51.194;6.840;2024-03-25T10:02:38;17.65;;;2.53;;
18082;SDS011;9168;51.194;6.840;2024-03-25T10:05:05;11.65;;;1.92;;
18082;SDS011;9168;51.194;6.840;2024-03-25T10:07:31;13.45;;;2.08;;
18082;SDS011;9168;51.194;6.840;2024-03-25T10:09:57;15.55;;;2.33;;
18082;SDS011;9168;51.194;6.840;2024-03-25T10:12:22;13.75;;;2.80;;
18082;SDS011;9168;51.194;6.840;2024-03-25T10:14:48;7.97;;;2.40;;
18082;SDS011;9168;51.194;6.840;2024-03-25T10:17:14;8.93;;;2.17;;
18082;SDS011;9168;51.194;6.840;2024-03-25T10:19:40;11.90;;;2.58;;
18082;SDS011;9168;51.194;6.840;2024-03-25T10:22:06;13.55;;;2.67;;
18082;SDS011;9168;51.194;6.840;2024-03-25T10:24:37;15.23;;;2.40;;
18082;SDS011;9168;51.194;6.840;2024-03-25T10:27:03;13.13;;;2.53;;
18082;SDS011;9168;51.194;6.840;2024-03-25T10:29:30;12.73;;;2.95;;
18082;SDS011;9168;51.194;6.840;2024-03-25T10:32:02;12.02;;;2.95;;
18082;SDS011;9168;51.194;6.840;2024-03-25T10:34:28;17.38;;;3.40;;
18082;SDS011;9168;51.194;6.840;2024-03-25T10:36:56;11.45;;;2.70;;
18082;SDS011;9168;51.194;6.840;2024-03-25T10:39:26;14.23;;;2.60;;
18082;SDS011;9168;51.194;6.840;2024-03-25T10:41:55;10.35;;;2.60;;
18082;SDS011;9168;51.194;6.840;2024-03-25T10:44:23;12.75;;;2.35;;
18082;SDS011;9168;51.194;6.840;2024-03-25T10:46:59;13.27;;;3.95;;
18082;SDS011;9168;51.194;6.840;2024-03-25T10:49:37;8.82;;;2.95;;
18082;SDS011;9168;51.194;6.840;2024-03-25T10:52:09;12.35;;;2.97;;
18082;SDS011;9168;51.194;6.840;2024-03-25T10:54:37;12.23;;;3.15;;
18082;SDS011;9168;51.194;6.840;2024-03-25T10:57:04;8.85;;;2.92;;
18082;SDS011;9168;51.194;6.840;2024-03-25T10:59:32;9.15;;;2.45;;
18082;SDS011;9168;51.194;6.840;2024-03-25T11:01:58;11.82;;;2.90;;
18082;SDS011;9168;51.194;6.840;2024-03-25T11:04:24;6.50;;;1.83;;
18082;SDS011;9168;51.194;6.840;2024-03-25T11:06:50;9.35;;;2.65;;
18082;SDS011;9168;51.194;6.840;2024-03-25T11:09:23;10.23;;;2.70;;
18082;SDS011;9168;51.194;6.840;2024-03-25T11:11:54;12.68;;;2.78;;
18082;SDS011;9168;51.194;6.840;2024-03-25T11:14:24;9.25;;;2.65;;
18082;SDS011;9168;51.194;6.840;2024-03-25T11:16:54;8.65;;;1.95;;
18082;SDS011;9168;51.194;6.840;2024-03-25T11:19:20;7.40;;;1.73;;
18082;SDS011;9168;51.194;6.840;2024-03-25T11:21:50;7.15;;;2.40;;
18082;SDS011;9168;51.194;6.840;2024-03-25T11:24:26;7.35;;;2.15;;
18082;SDS011;9168;51.194;6.840;2024-03-25T11:26:52;11.68;;;1.98;;
18082;SDS011;9168;51.194;6.840;2024-03-25T11:29:18;12.77;;;2.22;;
18082;SDS011;9168;51.194;6.840;2024-03-25T11:31:44;6.53;;;2.25;;
18082;SDS011;9168;51.194;6.840;2024-03-25T11:34:10;7.68;;;2.05;;
18082;SDS011;9168;51.194;6.840;2024-03-25T11:36:36;4.63;;;1.80;;
18082;SDS011;9168;51.194;6.840;2024-03-25T11:39:05;5.45;;;1.88;;
18082;SDS011;9168;51.194;6.840;2024-03-25T11:41:32;5.97;;;2.00;;
18082;SDS011;9168;51.194;6.840;2024-03-25T11:43:58;6.30;;;1.88;;
18082;SDS011;9168;51.194;6.840;2024-03-25T11:46:24;6.97;;;2.13;;
18082;SDS011;9168;51.194;6.840;2024-03-25T11:48:51;7.25;;;1.90;;
18082;SDS011;9168;51.194;6.840;2024-03-25T11:51:17;9.85;;;2.35;;
18082;SDS011;9168;51.194;6.840;2024-03-25T11:53:44;8.10;;;2.45;;
18082;SDS011;9168;51.194;6.840;2024-03-25T11:56:10;7.82;;;2.90;;
18082;SDS011;9168;51.194;6.840;2024-03-25T11:58:37;6.78;;;2.08;;
18082;SDS011;9168;51.194;6.840;2024-03-25T12:01:03;8.77;;;2.47;;
18082;SDS011;9168;51.194;6.840;2024-03-25T12:03:29;4.47;;;2.00;;
18082;SDS011;9168;51.194;6.840;2024-03-25T12:05:56;7.10;;;2.10;;
18082;SDS011;9168;51.194;6.840;2024-03-25T12:08:22;5.88;;;1.90;;
18082;SDS011;9168;51.194;6.840;2024-03-25T12:10:51;4.75;;;1.80;;
18082;SDS011;9168;51.194;6.840;2024-03-25T12:13:35;3.80;;;2.00;;
18082;SDS011;9168;51.194;6.840;2024-03-25T12:16:04;6.65;;;2.00;;
18082;SDS011;9168;51.194;6.840;2024-03-25T12:18:30;5.25;;;1.73;;
18082;SDS011;9168;51.194;6.840;2024-03-25T12:20:56;5.35;;;2.22;;
18082;SDS011;9168;51.194;6.840;2024-03-25T12:23:22;4.88;;;1.83;;
18082;SDS011;9168;51.194;6.840;2024-03-25T12:25:48;7.75;;;2.03;;
18082;SDS011;9168;51.194;6.840;2024-03-25T12:28:14;3.22;;;1.80;;
18082;SDS011;9168;51.194;6.840;2024-03-25T12:30:48;8.27;;;1.95;;
18082;SDS011;9168;51.194;6.840;2024-03-25T12:33:16;5.82;;;1.90;;
18082;SDS011;9168;51.194;6.840;2024-03-25T12:35:44;5.22;;;2.10;;
18082;SDS011;9168;51.194;6.840;2024-03-25T12:38:21;4.50;;;2.08;;
18082;SDS011;9168;51.194;6.840;2024-03-25T12:41:17;5.85;;;1.80;;
18082;SDS011;9168;51.194;6.840;2024-03-25T12:43:42;4.60;;;1.90;;
18082;SDS011;9168;51.194;6.840;2024-03-25T12:46:09;4.70;;;1.92;;
18082;SDS011;9168;51.194;6.840;2024-03-25T12:48:38;6.38;;;2.28;;
18082;SDS011;9168;51.194;6.840;2024-03-25T12:51:04;4.45;;;1.65;;
18082;SDS011;9168;51.194;6.840;2024-03-25T12:53:30;4.15;;;1.80;;
18082;SDS011;9168;51.194;6.840;2024-03-25T12:55:56;4.63;;;1.92;;
18082;SDS011;9168;51.194;6.840;2024-03-25T12:58:22;4.85;;;1.92;;
18082;SDS011;9168;51.194;6.840;2024-03-25T13:00:48;4.13;;;1.80;;
18082;SDS011;9168;51.194;6.840;2024-03-25T13:03:14;4.03;;;1.73;;
18082;SDS011;9168;51.194;6.840;2024-03-25T13:05:40;6.00;;;2.22;;
18082;SDS011;9168;51.194;6.840;2024-03-25T13:08:08;6.80;;;2.28;;
18082;SDS011;9168;51.194;6.840;2024-03-25T13:10:33;6.65;;;1.85;;
18082;SDS011;9168;51.194;6.840;2024-03-25T13:13:00;7.15;;;2.00;;
18082;SDS011;9168;51.194;6.840;2024-03-25T13:15:27;6.25;;;2.22;;
18082;SDS011;9168;51.194;6.840;2024-03-25T13:17:53;4.57;;;1.70;;
18082;SDS011;9168;51.194;6.840;2024-03-25T13:20:19;3.20;;;1.48;;
18082;SDS011;9168;51.194;6.840;2024-03-25T13:22:45;7.88;;;1.98;;
18082;SDS011;9168;51.194;6.840;2024-03-25T13:25:11;8.52;;;2.03;;
18082;SDS011;9168;51.194;6.840;2024-03-25T13:27:36;3.78;;;1.45;;
18082;SDS011;9168;51.194;6.840;2024-03-25T13:30:02;6.63;;;1.90;;
18082;SDS011;9168;51.194;6.840;2024-03-25T13:32:29;3.90;;;1.60;;
18082;SDS011;9168;51.194;6.840;2024-03-25T13:34:55;4.60;;;1.80;;
18082;SDS011;9168;51.194;6.840;2024-03-25T13:37:20;2.60;;;1.58;;
18082;SDS011;9168;51.194;6.840;2024-03-25T13:39:46;5.43;;;2.22;;
18082;SDS011;9168;51.194;6.840;2024-03-25T13:42:12;5.97;;;1.75;;
18082;SDS011;9168;51.194;6.840;2024-03-25T13:44:38;5.53;;;1.80;;
18082;SDS011;9168;51.194;6.840;2024-03-25T13:47:03;6.28;;;1.70;;
18082;SDS011;9168;51.194;6.840;2024-03-25T13:49:29;3.20;;;1.40;;
18082;SDS011;9168;51.194;6.840;2024-03-25T13:51:58;6.32;;;2.10;;
18082;SDS011;9168;51.194;6.840;2024-03-25T13:54:24;4.68;;;1.83;;
18082;SDS011;9168;51.194;6.840;2024-03-25T13:56:51;6.97;;;1.90;;
18082;SDS011;9168;51.194;6.840;2024-03-25T13:59:17;6.18;;;1.90;;
18082;SDS011;9168;51.194;6.840;2024-03-25T14:01:44;3.40;;;1.42;;
18082;SDS011;9168;51.194;6.840;2024-03-25T14:04:09;6.25;;;2.05;;
18082;SDS011;9168;51.194;6.840;2024-03-25T14:06:35;3.42;;;1.40;;
18082;SDS011;9168;51.194;6.840;2024-03-25T14:09:02;3.53;;;1.80;;
18082;SDS011;9168;51.194;6.840;2024-03-25T14:11:28;4.25;;;1.70;;
18082;SDS011;9168;51.194;6.840;2024-03-25T14:13:54;5.57;;;1.70;;
18082;SDS011;9168;51.194;6.840;2024-03-25T14:16:20;5.78;;;1.98;;
18082;SDS011;9168;51.194;6.840;2024-03-25T14:18:46;2.85;;;1.40;;
18082;SDS011;9168;51.194;6.840;2024-03-25T14:21:11;5.43;;;1.98;;
18082;SDS011;9168;51.194;6.840;2024-03-25T14:23:37;4.35;;;1.70;;
18082;SDS011;9168;51.194;6.840;2024-03-25T14:26:03;5.82;;;1.95;;
18082;SDS011;9168;51.194;6.840;2024-03-25T14:28:29;6.55;;;1.67;;
18082;SDS011;9168;51.194;6.840;2024-03-25T14:30:54;4.18;;;1.65;;
18082;SDS011;9168;51.194;6.840;2024-03-25T14:33:20;3.92;;;1.40;;
18082;SDS011;9168;51.194;6.840;2024-03-25T14:35:46;10.05;;;2.00;;
18082;SDS011;9168;51.194;6.840;2024-03-25T14:38:11;3.15;;;1.50;;
18082;SDS011;9168;51.194;6.840;2024-03-25T14:40:38;7.55;;;2.20;;
18082;SDS011;9168;51.194;6.840;2024-03-25T14:43:04;6.45;;;1.92;;
18082;SDS011;9168;51.194;6.840;2024-03-25T14:45:30;3.63;;;1.48;;
18082;SDS011;9168;51.194;6.840;2024-03-25T14:47:56;5.20;;;1.80;;